createdAt,value
2018-05-09T00:00:34.917Z,12.40
2018-05-09T00:03:02.612Z,12.40
2018-05-09T00:05:30.250Z,12.30
2018-05-09T00:07:57.881Z,12.40
2018-05-09T00:10:26.391Z,12.50
2018-05-09T00:12:54.012Z,12.40
2018-05-09T00:15:21.611Z,12.40
2018-05-09T00:17:50.010Z,12.50
2018-05-09T00:20:17.619Z,12.50
2018-05-09T00:22:45.288Z,12.60
2018-05-09T00:25:12.953Z,12.70
2018-05-09T00:27:40.624Z,12.60
2018-05-09T00:30:08.266Z,12.70
2018-05-09T00:32:35.889Z,12.60
2018-05-09T00:35:04.581Z,12.70
2018-05-09T00:37:32.961Z,12.70
2018-05-09T00:40:01.360Z,12.70
2018-05-09T00:42:29.013Z,12.70
2018-05-09T00:44:56.632Z,12.70
2018-05-09T00:47:24.222Z,12.60
2018-05-09T00:49:52.131Z,12.50
2018-05-09T00:52:19.747Z,12.30
2018-05-09T00:54:47.347Z,12.40
2018-05-09T00:57:15.743Z,12.30
2018-05-09T00:59:43.336Z,12.30
2018-05-09T01:02:10.978Z,12.30
2018-05-09T01:04:38.620Z,12.30
2018-05-09T01:07:06.272Z,12.10
2018-05-09T01:09:33.914Z,12.10
2018-05-09T01:12:01.565Z,12.00
2018-05-09T01:14:29.160Z,12.00
2018-05-09T01:16:56.774Z,11.90
2018-05-09T01:19:24.428Z,12.00
2018-05-09T01:21:52.822Z,12.10
2018-05-09T01:24:21.244Z,12.10
2018-05-09T01:26:48.847Z,12.10
2018-05-09T01:29:16.447Z,12.10
2018-05-09T01:31:44.067Z,12.20
2018-05-09T01:34:12.507Z,12.20
2018-05-09T01:36:40.094Z,12.20
2018-05-09T01:39:07.777Z,12.20
2018-05-09T01:41:35.413Z,12.20
2018-05-09T01:44:03.038Z,12.10
2018-05-09T01:46:31.444Z,12.10
2018-05-09T01:48:59.067Z,12.10
2018-05-09T01:51:26.862Z,12.10
2018-05-09T01:53:54.504Z,12.10
2018-05-09T01:56:22.121Z,12.10
2018-05-09T01:58:49.756Z,12.10
2018-05-09T02:01:17.378Z,12.20
2018-05-09T02:03:44.988Z,12.20
2018-05-09T02:06:12.692Z,12.20
2018-05-09T02:08:40.545Z,12.10
2018-05-09T02:11:08.149Z,12.10
2018-05-09T02:13:35.765Z,12.10
2018-05-09T02:16:04.171Z,12.10
2018-05-09T02:18:31.786Z,12.00
2018-05-09T02:20:59.426Z,12.00
2018-05-09T02:23:27.042Z,12.00
2018-05-09T02:25:54.687Z,12.00
2018-05-09T02:28:22.290Z,11.90
2018-05-09T02:30:50.731Z,11.90
2018-05-09T02:33:18.785Z,11.80
2018-05-09T02:35:46.381Z,11.90
2018-05-09T02:38:14.028Z,11.80
2018-05-09T02:40:41.635Z,11.80
2018-05-09T02:43:10.029Z,11.70
2018-05-09T02:45:37.695Z,11.70
2018-05-09T02:48:06.079Z,11.60
2018-05-09T02:50:33.729Z,11.60
2018-05-09T02:53:01.377Z,11.60
2018-05-09T02:55:28.982Z,11.50
2018-05-09T02:57:56.605Z,11.50
2018-05-09T03:00:24.257Z,11.50
2018-05-09T03:02:51.841Z,11.50
2018-05-09T03:05:19.481Z,11.50
2018-05-09T03:07:47.168Z,11.40
2018-05-09T03:10:14.800Z,11.40
2018-05-09T03:12:42.401Z,11.30
2018-05-09T03:15:10.044Z,11.20
2018-05-09T03:17:37.640Z,11.20
2018-05-09T03:20:06.048Z,11.20
2018-05-09T03:22:33.687Z,11.20
2018-05-09T03:25:01.347Z,11.30
2018-05-09T03:27:28.969Z,11.30
2018-05-09T03:29:56.614Z,11.30
2018-05-09T03:32:25.007Z,11.20
2018-05-09T03:34:53.421Z,11.20
2018-05-09T03:37:21.061Z,11.20
2018-05-09T03:39:49.416Z,11.20
2018-05-09T03:42:17.020Z,11.20
2018-05-09T03:44:44.709Z,11.20
2018-05-09T03:47:12.351Z,11.20
2018-05-09T03:49:39.986Z,11.20
2018-05-09T03:52:07.585Z,11.20
2018-05-09T03:54:35.219Z,11.20
2018-05-09T03:57:02.883Z,11.20
2018-05-09T03:59:30.503Z,11.30
2018-05-09T04:02:09.884Z,11.30
2018-05-09T04:04:49.892Z,11.40
2018-05-09T04:07:29.411Z,11.40
2018-05-09T04:09:57.115Z,11.40
2018-05-09T04:12:24.768Z,11.50
2018-05-09T04:14:52.462Z,11.50
2018-05-09T04:17:20.917Z,11.50
2018-05-09T04:19:48.585Z,11.50
2018-05-09T04:22:16.290Z,11.60
2018-05-09T04:24:44.692Z,11.70
2018-05-09T04:27:13.151Z,11.80
2018-05-09T04:29:40.810Z,11.80
2018-05-09T04:32:08.468Z,11.90
2018-05-09T04:34:36.115Z,11.90
2018-05-09T04:37:03.728Z,12.00
2018-05-09T04:39:31.382Z,12.00
2018-05-09T04:41:59.033Z,12.10
2018-05-09T04:44:26.676Z,12.10
2018-05-09T04:46:54.280Z,12.30
2018-05-09T04:49:21.940Z,12.40
2018-05-09T04:51:49.576Z,12.50
2018-05-09T04:54:17.241Z,12.60
2018-05-09T04:56:44.872Z,12.80
2018-05-09T04:59:12.475Z,12.90
2018-05-09T05:01:40.137Z,13.00
2018-05-09T05:04:07.769Z,13.10
2018-05-09T05:06:36.876Z,13.40
2018-05-09T05:09:06.096Z,13.60
2018-05-09T05:11:33.710Z,13.50
2018-05-09T05:14:01.347Z,13.70
2018-05-09T05:16:28.941Z,14.00
2018-05-09T05:18:56.587Z,14.10
2018-05-09T05:21:24.230Z,14.20
2018-05-09T05:23:51.865Z,14.30
2018-05-09T05:26:20.263Z,14.60
2018-05-09T05:28:48.037Z,14.50
2018-05-09T05:31:15.738Z,14.70
2018-05-09T05:33:43.393Z,14.80
2018-05-09T05:36:11.053Z,14.90
2018-05-09T05:38:38.671Z,14.90
2018-05-09T05:41:06.321Z,15.00
2018-05-09T05:43:33.977Z,15.10
2018-05-09T05:46:01.645Z,15.20
2018-05-09T05:48:29.246Z,15.30
2018-05-09T05:50:56.872Z,15.40
2018-05-09T05:53:24.489Z,15.50
2018-05-09T05:55:52.902Z,15.70
2018-05-09T05:58:21.795Z,15.60
2018-05-09T06:00:49.469Z,15.70
2018-05-09T06:03:17.948Z,15.80
2018-05-09T06:05:45.948Z,15.90
2018-05-09T06:08:13.554Z,16.00
2018-05-09T06:10:41.946Z,16.20
2018-05-09T06:13:10.354Z,16.20
2018-05-09T06:15:37.964Z,16.20
2018-05-09T06:18:06.379Z,16.40
2018-05-09T06:20:34.786Z,16.50
2018-05-09T06:23:03.205Z,16.60
2018-05-09T06:25:30.816Z,16.60
2018-05-09T06:27:59.253Z,16.70
2018-05-09T06:30:26.958Z,16.70
2018-05-09T06:32:55.376Z,16.90
2018-05-09T06:35:23.056Z,16.80
2018-05-09T06:37:50.741Z,17.00
2018-05-09T06:40:18.405Z,17.00
2018-05-09T06:42:46.406Z,17.10
2018-05-09T06:45:14.085Z,17.30
2018-05-09T06:47:41.761Z,17.50
2018-05-09T06:50:11.104Z,17.80
2018-05-09T06:52:38.778Z,17.80
2018-05-09T06:55:06.397Z,17.90
2018-05-09T06:57:34.066Z,18.00
2018-05-09T07:00:02.628Z,18.40
2018-05-09T07:02:30.965Z,18.70
2018-05-09T07:04:59.386Z,19.00
2018-05-09T07:07:27.420Z,19.00
2018-05-09T07:09:55.049Z,19.10
2018-05-09T07:12:22.665Z,19.40
2018-05-09T07:14:50.321Z,19.80
2018-05-09T07:17:17.935Z,20.00
2018-05-09T07:19:45.616Z,20.10
2018-05-09T07:22:13.229Z,20.20
2018-05-09T07:24:40.888Z,20.60
2018-05-09T07:27:08.503Z,21.00
2018-05-09T07:29:36.114Z,21.30
2018-05-09T07:32:04.531Z,21.50
2018-05-09T07:34:32.165Z,21.50
2018-05-09T07:36:59.817Z,21.60
2018-05-09T07:39:27.433Z,21.60
2018-05-09T07:41:55.101Z,21.80
2018-05-09T07:44:22.753Z,21.90
2018-05-09T07:46:50.408Z,22.30
2018-05-09T07:49:18.082Z,22.80
2018-05-09T07:51:45.733Z,23.20
2018-05-09T07:54:13.332Z,23.40
2018-05-09T07:56:41.003Z,23.50
2018-05-09T07:59:09.339Z,23.70
2018-05-09T08:01:37.707Z,24.30
2018-05-09T08:04:06.117Z,23.80
2018-05-09T08:06:33.781Z,23.80
2018-05-09T08:09:01.429Z,24.10
2018-05-09T08:11:29.021Z,24.00
2018-05-09T08:13:56.654Z,24.10
2018-05-09T08:16:24.275Z,24.30
2018-05-09T08:18:51.958Z,24.40
2018-05-09T08:21:19.581Z,24.80
2018-05-09T08:23:47.367Z,25.10
2018-05-09T08:26:14.957Z,25.40
2018-05-09T08:28:42.555Z,25.30
2018-05-09T08:31:10.964Z,25.30
2018-05-09T08:33:38.620Z,25.20
2018-05-09T08:36:06.988Z,25.70
2018-05-09T08:38:34.859Z,25.70
2018-05-09T08:41:03.275Z,26.10
2018-05-09T08:43:30.938Z,26.10
2018-05-09T08:45:58.557Z,26.30
2018-05-09T08:48:26.212Z,26.50
2018-05-09T08:50:53.866Z,26.80
2018-05-09T08:53:21.548Z,27.10
2018-05-09T08:55:49.311Z,27.10
2018-05-09T08:58:16.982Z,27.00
2018-05-09T09:00:44.636Z,27.30
2018-05-09T09:03:12.257Z,27.70
2018-05-09T09:05:40.623Z,27.90
2018-05-09T09:08:08.278Z,27.90
2018-05-09T09:10:35.881Z,28.00
2018-05-09T09:13:04.345Z,27.60
2018-05-09T09:15:32.112Z,27.60
2018-05-09T09:17:59.682Z,27.10
2018-05-09T09:20:27.284Z,27.70
2018-05-09T09:22:54.957Z,28.60
2018-05-09T09:25:22.702Z,28.20
2018-05-09T09:27:51.128Z,28.70
2018-05-09T09:30:19.063Z,28.70
2018-05-09T09:32:46.634Z,29.50
2018-05-09T09:35:14.278Z,28.90
2018-05-09T09:37:42.676Z,28.90
2018-05-09T09:40:10.327Z,28.80
2018-05-09T09:42:38.750Z,29.10
2018-05-09T09:45:06.519Z,29.10
2018-05-09T09:47:34.128Z,29.10
2018-05-09T09:50:01.835Z,29.50
2018-05-09T09:52:29.517Z,29.20
2018-05-09T09:54:57.127Z,29.70
2018-05-09T09:57:24.761Z,29.60
2018-05-09T09:59:52.418Z,29.30
2018-05-09T10:02:20.031Z,29.70
2018-05-09T10:04:47.680Z,29.80
2018-05-09T10:07:15.310Z,29.40
2018-05-09T10:09:42.941Z,28.80
2018-05-09T10:12:10.544Z,29.40
2018-05-09T10:14:38.195Z,29.60
2018-05-09T10:17:06.552Z,30.10
2018-05-09T10:19:34.197Z,30.10
2018-05-09T10:22:01.815Z,30.30
2018-05-09T10:24:30.419Z,30.00
2018-05-09T10:26:58.111Z,30.00
2018-05-09T10:29:25.787Z,29.30
2018-05-09T10:31:53.391Z,29.50
2018-05-09T10:34:21.095Z,29.90
2018-05-09T10:36:48.760Z,29.30
2018-05-09T10:39:16.363Z,30.00
2018-05-09T10:41:44.092Z,29.70
2018-05-09T10:44:11.782Z,29.70
2018-05-09T10:46:39.422Z,29.40
2018-05-09T10:49:07.061Z,30.10
2018-05-09T10:51:35.475Z,30.10
2018-05-09T10:54:03.170Z,30.00
2018-05-09T10:56:30.795Z,29.80
2018-05-09T10:58:58.468Z,30.50
2018-05-09T11:01:26.124Z,30.90
2018-05-09T11:03:53.737Z,30.30
2018-05-09T11:06:21.363Z,30.00
2018-05-09T11:08:49.184Z,29.70
2018-05-09T11:11:16.822Z,29.70
2018-05-09T11:13:44.426Z,30.40
2018-05-09T11:16:12.086Z,31.30
2018-05-09T11:18:39.722Z,31.40
2018-05-09T11:21:07.365Z,31.50
2018-05-09T11:23:35.139Z,31.00
2018-05-09T11:26:02.838Z,29.70
2018-05-09T11:28:30.453Z,30.10
2018-05-09T11:30:58.831Z,30.60
2018-05-09T11:33:26.498Z,30.60
2018-05-09T11:35:54.165Z,29.20
2018-05-09T11:38:22.521Z,30.10
2018-05-09T11:40:51.218Z,30.00
2018-05-09T11:43:18.880Z,29.90
2018-05-09T11:45:46.492Z,31.10
2018-05-09T11:48:15.019Z,30.60
2018-05-09T11:50:42.638Z,30.60
2018-05-09T11:53:11.061Z,30.90
2018-05-09T11:55:38.694Z,30.80
2018-05-09T11:58:07.116Z,29.30
2018-05-09T12:00:34.761Z,29.30
2018-05-09T12:03:02.376Z,29.30
2018-05-09T12:05:30.038Z,29.30
2018-05-09T12:07:57.647Z,29.30
2018-05-09T12:10:26.042Z,29.00
2018-05-09T12:12:53.681Z,29.00
2018-05-09T12:15:22.062Z,29.10
2018-05-09T12:17:50.497Z,28.80
2018-05-09T12:20:18.136Z,28.90
2018-05-09T12:22:45.870Z,28.00
2018-05-09T12:25:13.552Z,28.10
2018-05-09T12:27:41.974Z,29.30
2018-05-09T12:30:09.597Z,29.30
2018-05-09T12:32:38.015Z,30.20
2018-05-09T12:35:05.644Z,30.20
2018-05-09T12:37:34.087Z,29.90
2018-05-09T12:40:01.723Z,29.90
2018-05-09T12:42:29.393Z,29.80
2018-05-09T12:44:57.004Z,30.60
2018-05-09T12:47:24.638Z,30.10
2018-05-09T12:49:52.847Z,30.40
2018-05-09T12:52:20.533Z,30.80
2018-05-09T12:54:48.193Z,31.20
2018-05-09T12:57:15.829Z,30.50
2018-05-09T12:59:43.453Z,29.90
2018-05-09T13:02:11.873Z,28.80
2018-05-09T13:04:39.505Z,28.80
2018-05-09T13:07:07.177Z,28.50
2018-05-09T13:09:34.788Z,28.40
2018-05-09T13:12:02.441Z,29.50
2018-05-09T13:14:30.059Z,29.60
2018-05-09T13:16:58.421Z,29.40
2018-05-09T13:19:26.071Z,29.40
2018-05-09T13:21:53.730Z,29.00
2018-05-09T13:24:21.398Z,29.00
2018-05-09T13:26:49.123Z,29.10
2018-05-09T13:29:16.748Z,29.60
2018-05-09T13:31:44.429Z,29.60
2018-05-09T13:34:12.186Z,30.10
2018-05-09T13:36:41.291Z,29.20
2018-05-09T13:39:08.934Z,29.20
2018-05-09T13:41:36.530Z,29.10
2018-05-09T13:44:04.258Z,29.30
2018-05-09T13:46:32.363Z,29.50
2018-05-09T13:49:00.030Z,29.60
2018-05-09T13:51:27.635Z,29.90
2018-05-09T13:53:55.414Z,29.10
2018-05-09T13:56:22.951Z,29.50
2018-05-09T13:58:51.345Z,29.70
2018-05-09T14:01:19.015Z,29.70
2018-05-09T14:03:46.676Z,29.70
2018-05-09T14:06:14.317Z,29.50
2018-05-09T14:08:42.735Z,29.30
2018-05-09T14:11:10.389Z,29.30
2018-05-09T14:13:38.057Z,29.20
2018-05-09T14:16:05.721Z,29.30
2018-05-09T14:18:34.155Z,28.80
2018-05-09T14:21:01.907Z,28.70
2018-05-09T14:23:29.504Z,28.80
2018-05-09T14:25:57.148Z,29.50
2018-05-09T14:28:24.779Z,29.60
2018-05-09T14:30:52.447Z,29.40
2018-05-09T14:33:20.123Z,29.20
2018-05-09T14:35:47.815Z,29.10
2018-05-09T14:38:15.752Z,29.50
2018-05-09T14:40:43.404Z,29.00
2018-05-09T14:43:11.767Z,28.90
2018-05-09T14:45:39.401Z,28.90
2018-05-09T14:48:06.990Z,29.10
2018-05-09T14:50:34.879Z,29.60
2018-05-09T14:53:02.458Z,29.50
2018-05-09T14:55:30.104Z,29.00
2018-05-09T14:57:57.708Z,28.90
2018-05-09T15:00:26.095Z,29.40
2018-05-09T15:02:53.721Z,29.40
2018-05-09T15:05:21.334Z,29.50
2018-05-09T15:07:48.997Z,29.50
2018-05-09T15:10:16.936Z,29.20
2018-05-09T15:12:45.253Z,29.10
2018-05-09T15:15:13.220Z,29.00
2018-05-09T15:17:40.832Z,29.30
2018-05-09T15:20:08.433Z,28.70
2018-05-09T15:22:36.850Z,29.10
2018-05-09T15:25:04.536Z,29.10
2018-05-09T15:27:32.924Z,28.80
2018-05-09T15:30:00.658Z,28.80
2018-05-09T15:32:28.277Z,28.30
2018-05-09T15:34:56.705Z,27.80
2018-05-09T15:37:25.135Z,27.80
2018-05-09T15:39:52.762Z,27.60
2018-05-09T15:42:20.374Z,27.30
2018-05-09T15:44:48.111Z,27.40
2018-05-09T15:47:15.642Z,27.50
2018-05-09T15:49:43.992Z,27.40
2018-05-09T15:52:11.610Z,27.40
2018-05-09T15:54:39.331Z,27.00
2018-05-09T15:57:06.933Z,27.00
2018-05-09T15:59:35.283Z,26.80
2018-05-09T16:02:02.922Z,26.80
2018-05-09T16:04:30.554Z,26.80
2018-05-09T16:06:58.178Z,26.70
2018-05-09T16:09:25.798Z,26.50
2018-05-09T16:11:53.381Z,26.40
2018-05-09T16:14:21.032Z,26.40
2018-05-09T16:16:53.529Z,26.20
2018-05-09T16:19:21.160Z,26.10
2018-05-09T16:21:49.532Z,25.80
2018-05-09T16:24:17.935Z,25.90
2018-05-09T16:26:45.688Z,25.90
2018-05-09T16:29:14.105Z,25.50
2018-05-09T16:31:41.747Z,25.50
2018-05-09T16:34:09.371Z,25.40
2018-05-09T16:36:37.016Z,25.50
2018-05-09T16:39:04.657Z,25.50
2018-05-09T16:41:32.263Z,25.30
2018-05-09T16:44:00.012Z,25.40
2018-05-09T16:46:27.657Z,25.30
2018-05-09T16:48:55.316Z,25.30
2018-05-09T16:51:22.998Z,25.20
2018-05-09T16:53:50.643Z,25.20
2018-05-09T16:56:19.334Z,25.10
2018-05-09T16:58:47.036Z,25.10
2018-05-09T17:01:14.664Z,25.20
2018-05-09T17:03:43.053Z,25.10
2018-05-09T17:06:11.436Z,25.20
2018-05-09T17:08:39.079Z,25.20
2018-05-09T17:11:07.462Z,25.10
2018-05-09T17:13:35.124Z,25.10
2018-05-09T17:16:02.769Z,25.10
2018-05-09T17:18:30.378Z,25.00
2018-05-09T17:20:58.801Z,24.90
2018-05-09T17:23:26.418Z,24.90
2018-05-09T17:25:54.832Z,24.80
2018-05-09T17:28:22.501Z,24.80
2018-05-09T17:30:50.198Z,24.60
2018-05-09T17:33:17.901Z,24.50
2018-05-09T17:35:45.524Z,24.50
2018-05-09T17:38:13.194Z,24.50
2018-05-09T17:40:40.852Z,24.50
2018-05-09T17:43:08.572Z,24.50
2018-05-09T17:45:36.172Z,24.50
2018-05-09T17:48:04.793Z,24.50
2018-05-09T17:50:32.482Z,24.20
2018-05-09T17:53:00.141Z,23.80
2018-05-09T17:55:27.772Z,23.60
2018-05-09T17:57:55.439Z,23.40
2018-05-09T18:00:23.044Z,23.20
2018-05-09T18:02:51.475Z,21.90
2018-05-09T18:05:19.151Z,21.80
2018-05-09T18:07:46.796Z,21.20
2018-05-09T18:10:15.264Z,21.10
2018-05-09T18:12:42.903Z,21.10
2018-05-09T18:15:10.509Z,21.20
2018-05-09T18:17:38.921Z,21.20
2018-05-09T18:20:06.610Z,21.20
2018-05-09T18:22:34.229Z,21.10
2018-05-09T18:25:02.619Z,20.90
2018-05-09T18:27:30.279Z,20.90
2018-05-09T18:29:57.906Z,20.80
2018-05-09T18:32:25.527Z,20.80
2018-05-09T18:34:53.169Z,20.70
2018-05-09T18:37:20.817Z,20.60
2018-05-09T18:39:48.532Z,20.50
2018-05-09T18:42:16.177Z,20.40
2018-05-09T18:44:44.604Z,20.20
2018-05-09T18:47:12.259Z,20.20
2018-05-09T18:49:39.871Z,20.10
2018-05-09T18:52:07.492Z,20.00
2018-05-09T18:54:35.306Z,20.00
2018-05-09T18:57:02.955Z,19.80
2018-05-09T18:59:30.617Z,19.70
2018-05-09T19:01:59.422Z,19.50
2018-05-09T19:04:27.021Z,19.50
2018-05-09T19:06:54.635Z,19.40
2018-05-09T19:09:22.288Z,19.30
2018-05-09T19:11:50.694Z,19.20
2018-05-09T19:14:18.363Z,19.20
2018-05-09T19:16:46.006Z,19.10
2018-05-09T19:19:14.376Z,18.90
2018-05-09T19:21:42.761Z,18.80
2018-05-09T19:24:11.165Z,18.60
2018-05-09T19:26:39.604Z,18.60
2018-05-09T19:29:07.207Z,18.60
2018-05-09T19:31:35.635Z,18.40
2018-05-09T19:34:03.499Z,18.40
2018-05-09T19:36:31.153Z,18.30
2018-05-09T19:38:58.777Z,18.30
2018-05-09T19:41:26.486Z,18.20
2018-05-09T19:43:54.127Z,18.20
2018-05-09T19:46:22.562Z,18.10
2018-05-09T19:48:50.171Z,18.10
2018-05-09T19:51:18.610Z,17.90
2018-05-09T19:53:46.255Z,17.90
2018-05-09T19:56:13.886Z,17.80
2018-05-09T19:58:41.543Z,17.80
2018-05-09T20:01:09.215Z,17.70
2018-05-09T20:03:37.654Z,17.50
2018-05-09T20:06:05.354Z,17.50
2018-05-09T20:08:33.015Z,17.40
2018-05-09T20:11:00.661Z,17.40
2018-05-09T20:13:28.313Z,17.30
2018-05-09T20:15:55.973Z,17.30
2018-05-09T20:18:23.585Z,17.20
2018-05-09T20:20:51.248Z,17.20
2018-05-09T20:23:18.884Z,17.20
2018-05-09T20:25:46.506Z,17.10
2018-05-09T20:28:14.135Z,17.00
2018-05-09T20:30:47.357Z,16.90
2018-05-09T20:33:15.055Z,16.80
2018-05-09T20:35:43.451Z,16.80
2018-05-09T20:38:11.056Z,16.70
2018-05-09T20:40:38.741Z,16.80
2018-05-09T20:43:06.346Z,16.70
2018-05-09T20:45:33.973Z,16.60
2018-05-09T20:48:01.589Z,16.60
2018-05-09T20:50:29.179Z,16.60
2018-05-09T20:52:56.802Z,16.70
2018-05-09T20:55:28.724Z,16.60
2018-05-09T20:57:56.338Z,16.60
2018-05-09T21:00:23.921Z,16.50
2018-05-09T21:02:51.548Z,16.50
2018-05-09T21:05:19.171Z,16.40
2018-05-09T21:07:55.638Z,16.30
2018-05-09T21:10:23.292Z,16.20
2018-05-09T21:12:50.937Z,16.20
2018-05-09T21:15:18.777Z,16.30
2018-05-09T21:17:46.431Z,16.30
2018-05-09T21:20:14.170Z,16.50
2018-05-09T21:22:41.926Z,16.70
2018-05-09T21:25:09.596Z,16.70
2018-05-09T21:27:37.272Z,16.80
2018-05-09T21:30:04.923Z,16.70
2018-05-09T21:32:32.558Z,16.50
2018-05-09T21:35:00.934Z,16.40
2018-05-09T21:37:28.592Z,16.40
2018-05-09T21:39:56.191Z,16.40
2018-05-09T21:42:24.555Z,16.30
2018-05-09T21:44:52.969Z,16.20
2018-05-09T21:47:20.627Z,16.20
2018-05-09T21:49:48.274Z,16.10
2018-05-09T21:52:16.725Z,16.00
2018-05-09T21:54:44.315Z,15.90
2018-05-09T21:57:11.941Z,16.00
2018-05-09T21:59:39.592Z,15.90
2018-05-09T22:02:07.258Z,15.80
2018-05-09T22:04:34.891Z,15.80
2018-05-09T22:07:02.528Z,15.80
2018-05-09T22:09:30.158Z,15.70
2018-05-09T22:11:57.765Z,15.60
2018-05-09T22:14:25.409Z,15.60
2018-05-09T22:16:53.021Z,15.50
2018-05-09T22:19:21.405Z,15.50
2018-05-09T22:21:49.057Z,15.40
2018-05-09T22:24:16.709Z,15.40
2018-05-09T22:26:44.349Z,15.30
2018-05-09T22:29:11.972Z,15.30
2018-05-09T22:31:40.392Z,15.10
2018-05-09T22:34:08.082Z,15.10
2018-05-09T22:36:35.761Z,15.20
2018-05-09T22:39:03.379Z,15.00
2018-05-09T22:41:31.014Z,14.90
2018-05-09T22:43:58.625Z,14.90
2018-05-09T22:46:26.277Z,15.00
2018-05-09T22:48:53.921Z,15.00
2018-05-09T22:51:21.538Z,15.00
2018-05-09T22:53:49.187Z,14.90
2018-05-09T22:56:16.783Z,14.90
2018-05-09T22:58:44.417Z,14.90
2018-05-09T23:01:12.046Z,14.80
2018-05-09T23:03:39.697Z,14.90
2018-05-09T23:06:07.329Z,15.00
2018-05-09T23:08:34.932Z,15.00
2018-05-09T23:11:02.574Z,15.00
2018-05-09T23:13:30.186Z,15.00
2018-05-09T23:15:57.846Z,15.00
2018-05-09T23:18:25.472Z,15.00
2018-05-09T23:20:53.120Z,14.90
2018-05-09T23:23:20.728Z,14.90
2018-05-09T23:25:48.364Z,14.90
2018-05-09T23:28:16.014Z,14.90
2018-05-09T23:30:43.659Z,14.80
2018-05-09T23:33:12.079Z,14.90
2018-05-09T23:35:39.754Z,14.90
2018-05-09T23:38:07.358Z,14.90
2018-05-09T23:40:34.982Z,14.90
2018-05-09T23:43:02.627Z,14.80
2018-05-09T23:45:30.281Z,14.80
2018-05-09T23:47:58.696Z,14.80
2018-05-09T23:50:26.319Z,14.80
2018-05-09T23:52:53.940Z,14.80
2018-05-09T23:55:21.586Z,14.70
2018-05-09T23:57:49.218Z,14.70
